• Join FlightAware (Why Join?)
  • Login
  • US Flag 
11:23PM EDT


 

Airport Tracker/Info


-or-


 

Live Flight TrackerFlight Track Log ✈ XOJ789 ✈ 01-Sep-2013 ✈ CYYZ - KLAX

Flight Track Log - Related Links

Times and Time Zones

All times are in EDT time to prevent confusion due to time zone crossing. See the XOJ789 flight status page for this flight to view local times or setup timezone preferences in your user account.

Time Position Orientation Groundspeed Altitude Reporting Facility
EDT Latitude Longitude Course Direction KTS MPH feet Rate Location/Type
01:36PM 43.7000 -79.6167 36° Northeast 160 184 2,000  Level Toronto Center
01:37PM 43.7500 -79.5667 36° Northeast 200 230 4,600 2,460 Climbing Toronto Center
01:38PM 43.8000 -79.5833 346° North 230 265 7,000 1,200 Climbing Toronto Center
01:39PM 43.8333 -79.6833 295° West 260 299 7,000  Level Toronto Center
01:40PM 43.8167 -79.7667 255° West 260 299 7,000 300 Level Toronto Center
01:41PM 43.8167 -79.8833 270° West 260 299 7,600 1,680 Climbing Toronto Center
01:42PM 43.8000 -79.9833 257° West 260 299 10,400 2,520 Climbing Toronto Center
01:43PM 43.7833 -80.0667 255° West 270 311 12,700 2,160 Climbing Toronto Center
01:44PM 43.7833 -80.2167 270° West 300 345 14,800 1,980 Climbing Toronto Center
01:45PM 43.7667 -80.3333 259° West 320 368 16,700 1,980 Climbing Toronto Center
01:46PM 43.7667 -80.4333 270° West 330 380 18,800 2,040 Climbing Toronto Center
01:47PM 43.7500 -80.5833 261° West 340 391 20,800 2,040 Climbing Toronto Center
01:48PM 43.7333 -80.7167 260° West 340 391 22,900 1,800 Climbing Toronto Center
01:49PM 43.6833 -80.8167 235° Southwest 340 391 24,400 1,500 Climbing Toronto Center
01:50PM 43.6167 -80.9167 227° Southwest 350 403 25,900 1,380 Climbing Toronto Center
01:51PM 43.5500 -81.0333 232° Southwest 360 414 27,200 1,320 Climbing Toronto Center
01:52PM 43.4833 -81.1500 232° Southwest 370 426 28,600 1,380 Climbing Toronto Center
01:53PM 43.4167 -81.2667 232° Southwest 380 437 30,000 1,380 Climbing Toronto Center
01:54PM 43.3667 -81.3833 240° Southwest 390 449 31,400 1,200 Climbing Toronto Center
01:55PM 43.3167 -81.5167 243° Southwest 390 449 32,500 1,080 Climbing Toronto Center
01:56PM 43.2833 -81.6500 251° West 410 472 33,600 1,080 Climbing Toronto Center
01:57PM 43.2333 -81.8000 245° Southwest 410 472 34,700 1,080 Climbing Toronto Center
01:58PM 43.1833 -81.9500 245° Southwest 420 483 35,800 1,080 Climbing Toronto Center
01:59PM 43.1667 -82.1167 262° West 420 483 36,900 960 Climbing Toronto Center
02:00PM 43.1333 -82.2667 253° West 420 483 37,800 840 Climbing Toronto Center
02:01PM 43.1167 -82.4500 263° West 430 495 38,600 780 Climbing Toronto Center
02:02PM 43.0833 -82.5833 251° West 440 506 39,400 720 Climbing Toronto Center
02:03PM 43.0333 -82.7500 248° West 440 506 40,100 660 Climbing Toronto Center
02:04PM 43.0000 -82.9167 255° West 440 506 40,800 720 Climbing Toronto Center
02:05PM 42.9667 -83.0667 253° West 440 506 41,600 720 Climbing Toronto Center
02:06PM 42.9167 -83.2333 248° West 430 495 42,300 660 Climbing Toronto Center
02:07PM 42.8833 -83.3667 251° West 430 495 43,000 300 Climbing Toronto Center
02:08PM 42.8500 -83.5167 253° West 430 495 43,000  Level Toronto Center
02:09PM 42.8167 -83.6833 255° West 440 506 43,000  Level Toronto Center
02:10PM 42.7667 -83.8333 246° West 440 506 43,000  Level Toronto Center
02:11PM 42.7333 -83.9833 253° West 440 506 43,000  Level Toronto Center
02:12PM 42.6833 -84.1667 250° West 450 518 43,000  Level Toronto Center
02:13PM 42.6500 -84.3333 255° West 450 518 43,000  Level Toronto Center
02:14PM 42.6167 -84.4833 253° West 450 518 43,000  Level Toronto Center
02:15PM 42.5728 -84.6647 252° West 451 519 43,000  Level Chicago Center
02:16PM 42.5311 -84.8233 250° West 449 517 43,000  Level Chicago Center
02:17PM 42.4878 -84.9847 250° West 452 520 43,000  Level Chicago Center
02:18PM 42.4453 -85.1439 250° West 451 519 43,000  Level Chicago Center
02:19PM 42.4031 -85.3036 250° West 451 519 43,000  Level Chicago Center
02:20PM 42.3511 -85.4942 250° West 451 519 43,000  Level Chicago Center
02:21PM 42.3072 -85.6514 249° West 447 514 43,000  Level Chicago Center
02:22PM 42.2644 -85.8097 250° West 447 514 43,000  Level Chicago Center
02:23PM 42.2164 -85.9836 250° West 456 525 43,000  Level Chicago Center
02:24PM 42.1719 -86.1419 249° West 456 525 43,000  Level Chicago Center
02:26PM 42.1272 -86.3025 249° West 461 531 43,000  Level Chicago Center
02:27PM 42.0825 -86.4619 249° West 460 529 43,000  Level Chicago Center
02:28PM 42.0367 -86.6219 249° West 461 531 43,000  Level Chicago Center
02:29PM 41.9900 -86.7908 250° West 460 529 43,000  Level Chicago Center
02:30PM 41.9444 -86.9522 249° West 464 534 43,000  Level Chicago Center
02:31PM 41.9019 -87.1517 254° West 466 536 43,000  Level Chicago Center
02:32PM 41.8811 -87.3211 261° West 466 536 43,000  Level Chicago Center
02:33PM 41.8581 -87.4867 259° West 459 528 43,000  Level Chicago Center
02:34PM 41.8350 -87.6578 260° West 467 537 43,000  Level Chicago Center
02:35PM 41.8131 -87.8275 260° West 470 541 43,000  Level Chicago Center
02:36PM 41.7867 -88.0281 260° West 465 535 43,000  Level Chicago Center
02:37PM 41.7633 -88.1947 259° West 462 532 43,000  Level Chicago Center
02:38PM 41.7411 -88.3625 260° West 465 535 43,000  Level Chicago Center
02:39PM 41.7172 -88.5297 259° West 464 534 43,000  Level Chicago Center
02:40PM 41.6886 -88.7286 259° West 461 531 43,000  Level Chicago Center
02:41PM 41.6644 -88.8950 259° West 459 528 43,000  Level Chicago Center
02:42PM 41.6403 -89.0611 259° West 459 528 43,000  Level Chicago Center
02:43PM 41.6164 -89.2258 259° West 455 524 43,000  Level Chicago Center
02:44PM 41.5925 -89.3931 259° West 459 528 43,000  Level Chicago Center
02:45PM 41.5664 -89.5711 259° West 458 527 43,000  Level Chicago Center
02:46PM 41.5414 -89.7372 259° West 459 528 43,000  Level Chicago Center
02:47PM 41.5161 -89.9025 259° West 457 526 43,000  Level Chicago Center
02:48PM 41.4858 -90.1022 259° West 460 529 43,000  Level Chicago Center
02:49PM 41.4606 -90.2675 259° West 458 527 43,000  Level Chicago Center
02:50PM 41.4358 -90.4344 259° West 461 531 43,000  Level Chicago Center
02:51PM 41.4072 -90.6036 257° West 467 537 43,000  Level Chicago Center
02:52PM 41.3789 -90.7739 258° West 470 541 43,000  Level Chicago Center
02:53PM 41.3514 -90.9400 258° West 463 533 43,000  Level Chicago Center
02:54PM 41.3247 -91.1072 258° West 463 533 43,000  Level Chicago Center
02:55PM 41.2925 -91.3053 258° West 460 529 43,000  Level Chicago Center
02:56PM 41.2675 -91.4511 257° West 461 531 43,000  Level Chicago Center
02:57PM 41.2367 -91.6367 258° West 461 531 43,000  Level Chicago Center
02:59PM 41.2072 -91.8069 257° West 461 531 43,000  Level Chicago Center
03:00PM 41.1786 -91.9722 257° West 464 534 43,000  Level Chicago Center
03:01PM 41.1439 -92.1689 257° West 462 532 43,000  Level Chicago Center
03:02PM 41.1150 -92.3356 257° West 466 536 43,000  Level Chicago Center
03:03PM 41.0853 -92.5011 257° West 469 540 43,000  Level Chicago Center
03:04PM 41.0567 -92.6653 257° West 465 535 43,000  Level Chicago Center
03:05PM 41.0261 -92.8303 256° West 468 539 43,000  Level Chicago Center
03:06PM 40.9911 -93.0294 257° West 469 540 43,000  Level Chicago Center
03:07PM 40.9606 -93.1942 256° West 470 541 43,000  Level Chicago Center
03:08PM 40.9306 -93.3578 256° West 466 536 43,000  Level Chicago Center
03:09PM 40.8986 -93.5244 256° West 471 542 43,000  Level Chicago Center
03:10PM 40.8692 -93.6886 257° West 468 539 43,000  Level Chicago Center
03:11PM 40.8308 -93.8886 256° West 472 543 43,000  Level Chicago Center
03:12PM 40.7983 -94.0544 256° West 472 543 43,000  Level Chicago Center
03:13PM 40.7661 -94.2203 256° West 472 543 43,000  Level Chicago Center
03:14PM 40.7344 -94.3858 256° West 470 541 43,000  Level Chicago Center
03:15PM 40.6867 -94.6172 255° West 473 544 43,000  Level Minneapolis Center
03:16PM 40.6544 -94.7822 256° West 469 540 43,000  Level Minneapolis Center
03:17PM 40.6189 -94.9547 255° West 477 549 43,000  Level Minneapolis Center
03:18PM 40.5842 -95.1253 255° West 481 554 43,000  Level Minneapolis Center
03:19PM 40.5497 -95.2942 255° West 479 551 43,000  Level Minneapolis Center
03:20PM 40.5153 -95.4642 255° West 479 551 43,000  Level Minneapolis Center
03:21PM 40.4875 -95.6008 255° West 481 554 43,000  Level Minneapolis Center
03:22PM 40.4456 -95.8028 255° West 479 551 43,000  Level Minneapolis Center
03:23PM 40.4031 -96.0019 254° West 473 544 43,000  Level Minneapolis Center
03:25PM 40.3678 -96.1708 255° West 475 547 43,000  Level Minneapolis Center
03:26PM 40.3239 -96.3742 254° West 479 551 43,000  Level Minneapolis Center
03:27PM 40.2869 -96.5433 254° West 482 555 43,000  Level Minneapolis Center
03:28PM 40.2497 -96.7114 254° West 480 552 43,000  Level Minneapolis Center
03:29PM 40.2125 -96.8803 254° West 482 555 43,000  Level Minneapolis Center
03:30PM 40.1758 -97.0489 254° West 481 554 43,000  Level Minneapolis Center
03:31PM 40.1386 -97.2169 254° West 481 554 43,000  Level Minneapolis Center
03:32PM 40.0944 -97.4092 253° West 482 555 43,000  Level Minneapolis Center
03:33PM 40.0558 -97.5783 253° West 484 557 43,000  Level Minneapolis Center
03:34PM 40.0175 -97.7481 254° West 485 558 43,000  Level Minneapolis Center
03:35PM 39.9708 -97.9522 253° West 488 562 43,000  Level Minneapolis Center
03:36PM 39.9306 -98.1231 253° West 490 564 43,000  Level Minneapolis Center
03:37PM 39.8911 -98.2925 253° West 489 563 43,000  Level Minneapolis Center
03:38PM 39.8583 -98.4319 253° West 494 568 43,000  Level Minneapolis Center
03:39PM 39.8097 -98.6369 253° West 495 570 43,000  Level Minneapolis Center
03:40PM 39.7689 -98.8092 253° West 496 571 43,000  Level Minneapolis Center
03:41PM 39.7353 -98.9456 252° West 494 568 43,000  Level Denver Center
03:42PM 39.6942 -99.1164 253° West 494 568 43,000  Level Denver Center
03:43PM 39.6517 -99.2883 252° West 499 574 43,000  Level Denver Center
03:44PM 39.6014 -99.4942 252° West 498 573 43,000  Level Denver Center
03:45PM 39.5594 -99.6656 252° West 499 574 43,000  Level Denver Center
03:46PM 39.5161 -99.8386 252° West 504 580 43,000  Level Denver Center
03:47PM 39.4836 -99.9647 252° West 504 580 43,000  Level Denver Center
03:48PM 39.4067 -100.1711 244° Southwest 510 587 43,000  Level Denver Center
03:49PM 39.3308 -100.3197 237° Southwest 514 592 43,000  Level Denver Center
03:50PM 39.2411 -100.4867 235° Southwest 508 585 43,000  Level Denver Center
03:51PM 39.1656 -100.6336 236° Southwest 511 588 43,000  Level Denver Center
03:52PM 39.0778 -100.8014 236° Southwest 507 583 43,000  Level Denver Center
03:53PM 38.9958 -100.9606 237° Southwest 506 582 43,000  Level Denver Center
03:54PM 38.9228 -101.1033 237° Southwest 501 577 43,000  Level Denver Center
03:55PM 38.8625 -101.2556 243° Southwest 500 575 43,000  Level Denver Center
03:56PM 38.8097 -101.4383 250° West 493 567 43,000  Level Denver Center
03:57PM 38.7703 -101.6003 253° West 497 572 43,000  Level Denver Center
03:59PM 38.7231 -101.7858 252° West 496 571 43,000  Level Denver Center
04:00PM 38.6825 -101.9450 252° West 493 567 43,000  Level Denver Center
04:01PM 38.6353 -102.1306 252° West 492 566 43,000  Level Denver Center
04:02PM 38.5881 -102.3150 252° West 492 566 43,000  Level Denver Center
04:03PM 38.5397 -102.4992 252° West 490 564 43,000  Level Denver Center
04:04PM 38.4989 -102.6569 252° West 490 564 43,000  Level Denver Center
04:05PM 38.4497 -102.8406 251° West 491 565 43,000  Level Denver Center
04:06PM 38.4019 -103.0253 252° West 493 567 43,000  Level Denver Center
04:07PM 38.3528 -103.2092 251° West 491 565 43,000  Level Denver Center
04:08PM 38.3047 -103.3836 251° West 491 565 43,000  Level Denver Center
04:09PM 38.2622 -103.5417 251° West 493 567 43,000 180 Level Denver Center
04:10PM 38.2197 -103.6997 251° West 496 571 43,400 420 Climbing Denver Center
04:11PM 38.1697 -103.8814 251° West 492 566 43,900 480 Climbing Denver Center
04:12PM 38.1275 -104.0358 251° West 487 560 44,400 480 Climbing Denver Center
04:13PM 38.0778 -104.2131 250° West 482 555 45,000 240 Climbing Denver Center
04:14PM 38.0353 -104.3664 251° West 483 556 45,000  Level Denver Center
04:15PM 37.9831 -104.5469 250° West 491 565 45,000  Level Denver Center
04:16PM 37.9392 -104.7033 250° West 493 567 45,000  Level Denver Center
04:17PM 37.9028 -104.8319 250° West 491 565 45,000  Level Denver Center
04:18PM 37.8433 -105.0386 250° West 491 565 45,000  Level Denver Center
04:19PM 37.7986 -105.1928 250° West 491 565 45,000  Level Denver Center
04:20PM 37.7467 -105.3742 250° West 492 566 45,000  Level Denver Center
04:21PM 37.7008 -105.5294 250° West 493 567 45,000  Level Denver Center
04:23PM 37.6469 -105.7097 249° West 494 568 45,000  Level Denver Center
04:24PM 37.6014 -105.8642 250° West 492 566 45,000  Level Denver Center
04:25PM 37.5483 -106.0439 250° West 491 565 45,000  Level Denver Center
04:26PM 37.5011 -106.1992 249° West 489 563 45,000  Level Denver Center
04:27PM 37.4558 -106.3525 250° West 486 559 45,000  Level Denver Center
04:28PM 37.4011 -106.5306 249° West 489 563 45,000  Level Denver Center
04:29PM 37.3542 -106.6831 249° West 489 563 45,000  Level Denver Center
04:30PM 37.3008 -106.8622 250° West 490 564 45,000  Level Denver Center
04:31PM 37.2525 -107.0150 248° West 492 566 45,000  Level Denver Center
04:32PM 37.2136 -107.1425 249° West 491 565 45,000  Level Denver Center
04:33PM 37.1494 -107.3472 249° West 495 570 45,000  Level Denver Center
04:34PM 37.1014 -107.4994 248° West 492 566 45,000  Level Denver Center
04:35PM 37.0458 -107.6792 249° West 496 571 45,000  Level Denver Center
04:36PM 36.9967 -107.8308 248° West 494 568 45,000  Level Denver Center
04:37PM 36.9472 -107.9850 248° West 497 572 45,000  Level Denver Center
04:38PM 36.8908 -108.1647 249° West 498 573 45,000  Level Denver Center
04:39PM 36.8414 -108.3183 248° West 501 577 45,000  Level Denver Center
04:40PM 36.7836 -108.4981 248° West 500 575 45,000  Level Denver Center
04:41PM 36.7339 -108.6500 248° West 498 573 45,000  Level Denver Center
04:42PM 36.6750 -108.8297 248° West 502 578 45,000  Level Denver Center
04:43PM 36.6114 -108.9756 242° Southwest 504 580 45,000  Level Denver Center
04:44PM 36.5283 -109.1369 237° Southwest 502 578 45,000  Level Denver Center
04:45PM 36.4572 -109.2769 238° Southwest 502 578 45,000  Level Denver Center
04:46PM 36.3758 -109.4392 238° Southwest 500 575 45,000  Level Denver Center
04:47PM 36.3042 -109.5775 237° Southwest 500 575 45,000  Level Denver Center
04:48PM 36.2328 -109.7164 238° Southwest 500 575 45,000  Level Denver Center
04:49PM 36.1494 -109.8778 237° Southwest 500 575 45,000  Level Denver Center
04:50PM 36.0803 -110.0158 238° Southwest 496 571 45,000  Level Denver Center
04:51PM 35.9978 -110.1775 238° Southwest 500 575 45,000  Level Denver Center
04:52PM 35.9250 -110.3231 238° Southwest 500 575 45,000  Level Denver Center
04:53PM 35.8697 -110.4314 238° Southwest 495 570 45,000  Level Albuquerque Center
04:54PM 35.7972 -110.5700 237° Southwest 499 574 45,000  Level Albuquerque Center
04:55PM 35.7167 -110.7319 239° Southwest 497 572 45,000  Level Albuquerque Center
04:56PM 35.6467 -110.8683 238° Southwest 495 570 45,000  Level Albuquerque Center
04:57PM 35.5689 -111.0311 240° Southwest 494 568 45,000  Level Albuquerque Center
04:58PM 35.5014 -111.1700 239° Southwest 495 570 45,000  Level Albuquerque Center
04:59PM 35.4322 -111.3083 238° Southwest 496 571 45,000  Level Albuquerque Center
05:00PM 35.3667 -111.4503 241° Southwest 500 575 45,000  Level Albuquerque Center
05:01PM 35.2825 -111.6222 239° Southwest 505 581 45,000  Level Albuquerque Center
05:02PM 35.2122 -111.7725 240° Southwest 500 575 45,000  Level Albuquerque Center
05:03PM 35.1417 -111.9203 240° Southwest 504 580 45,000  Level Albuquerque Center
05:04PM 35.0725 -112.0681 240° Southwest 503 579 45,000  Level Albuquerque Center
05:05PM 35.0042 -112.2150 240° Southwest 500 575 45,000  Level Albuquerque Center
05:06PM 34.9383 -112.3622 241° Southwest 498 573 45,000  Level Albuquerque Center
05:07PM 34.8894 -112.5186 249° West 496 571 45,000  Level Albuquerque Center
05:08PM 34.8531 -112.6806 255° West 496 571 45,000  Level Albuquerque Center
05:09PM 34.8158 -112.8444 255° West 499 574 45,000  Level Albuquerque Center
05:10PM 34.7708 -113.0411 254° West 502 578 45,000  Level Albuquerque Center
05:11PM 34.7344 -113.2033 255° West 499 574 45,000  Level Albuquerque Center
05:12PM 34.6978 -113.3650 255° West 498 573 45,000  Level Albuquerque Center
05:13PM 34.6606 -113.5267 254° West 498 573 45,000  Level Albuquerque Center
05:15PM 34.6211 -113.6875 253° West 498 573 45,000  Level Albuquerque Center
05:16PM 34.5836 -113.8469 254° West 495 570 45,000  Level Albuquerque Center
05:17PM 34.5464 -114.0072 254° West 494 568 45,000  Level Albuquerque Center
05:18PM 34.5089 -114.1675 254° West 496 571 45,000  Level Los Angeles Center
05:19PM 34.4533 -114.3947 254° West 504 580 45,000  Level Los Angeles Center
05:20PM 34.4139 -114.5569 254° West 503 579 45,000 -60 Level Los Angeles Center
05:21PM 34.3750 -114.7197 254° West 504 580 44,900  Descending Los Angeles Center
05:22PM 34.3347 -114.8828 253° West 506 582 45,000  Climbing Los Angeles Center
05:23PM 34.2956 -115.0453 254° West 507 583 45,000  Level Los Angeles Center
05:24PM 34.2553 -115.2069 253° West 504 580 45,000 -840 Level Los Angeles Center
05:25PM 34.2053 -115.4036 253° West 512 589 43,300 -2,040 Descending Los Angeles Center
05:26PM 34.1642 -115.5678 253° West 513 590 40,900 -2,520 Descending Los Angeles Center
05:27PM 34.1253 -115.7289 254° West 505 581 38,200 -2,520 Descending Los Angeles Center
05:28PM 34.1000 -115.8636 257° West 514 592 35,800 -2,940 Descending Los Angeles Center
05:29PM 34.0642 -116.0983 260° West 512 589 31,600 -2,820 Descending Los Angeles Center
05:31PM 34.0392 -116.2633 260° West 506 582 28,900 -2,340 Descending Los Angeles Center
05:32PM 34.0100 -116.4731 261° West 445 512 26,300 -2,760 Descending Los Angeles Center
05:33PM 33.9958 -116.6086 263° West 415 478 23,300 -2,820 Descending Los Angeles Center
05:34PM 33.9853 -116.7397 264° West 399 459 20,600 -2,820 Descending Los Angeles Center
05:35PM 33.9744 -116.8667 264° West 386 444 17,500 -1,800 Descending Los Angeles Center
05:36PM 33.9650 -116.9883 265° West 370 426 17,000 -300 Descending Los Angeles Center
05:37PM 33.9553 -117.1128 265° West 372 428 17,000 -840 Level Los Angeles Center
05:38PM 33.9431 -117.2619 264° West 386 444 15,300 -1,500 Descending Los Angeles Center
05:39PM 33.9328 -117.3833 264° West 373 429 13,900 -1,200 Descending Los Angeles Center
05:40PM 33.9833 -117.5000 298° West 298 343 12,700 -1,500 Descending Southern California TRACON
05:41PM 34.0167 -117.6000 292° West 320 368 10,800 -1,380 Descending Southern California TRACON
05:42PM 34.0000 -117.7000 259° West 282 325 10,000 -960 Descending Southern California TRACON
05:43PM 34.0000 -117.7833 270° West 276 318 8,900 -1,080 Descending Southern California TRACON
05:44PM 33.9833 -117.8833 259° West 281 323 7,900 -1,140 Descending Southern California TRACON
05:45PM 33.9833 -117.9667 270° West 272 313 6,700 -1,380 Descending Southern California TRACON
05:46PM 33.9667 -118.0667 259° West 274 315 5,200 -1,500 Descending Southern California TRACON
05:47PM 33.9667 -118.1500 270° West 259 298 3,800 -1,200 Descending Southern California TRACON
05:48PM 33.9500 -118.2167 253° West 195 224 2,800 -960 Descending Southern California TRACON
05:49PM 33.9500 -118.2667 270° West 175 201 2,000 -840 Descending Southern California TRACON
05:50PM 33.9500 -118.3167 270° West 132 152 1,200 -720 Descending Southern California TRACON
05:51PM 33.9333 -118.3667 248° West 130 150 600 -480 Descending Southern California TRACON
05:52PM 33.9356 -118.4097 274° West 132 152 100 -420 Descending Los Angeles Center
05:54PM 33.9333 -118.4000 North  Level FlightAware Approximate